createdAt,value
2019-04-25T00:01:04.547Z,26.85
2019-04-25T00:02:21.221Z,25.77
2019-04-25T00:03:45.524Z,28.57
2019-04-25T00:04:54.059Z,30.02
2019-04-25T00:05:58.865Z,27.37
2019-04-25T00:07:03.332Z,25.30
2019-04-25T00:08:08.067Z,30.12
2019-04-25T00:09:14.410Z,29.20
2019-04-25T00:10:18.962Z,29.18
2019-04-25T00:11:23.941Z,25.70
2019-04-25T00:12:28.691Z,28.60
2019-04-25T00:13:35.062Z,29.98
2019-04-25T00:14:41.671Z,34.75
2019-04-25T00:15:47.111Z,26.93
2019-04-25T00:16:52.604Z,29.67
2019-04-25T00:17:57.067Z,28.47
2019-04-25T00:19:01.934Z,30.70
2019-04-25T00:20:07.960Z,28.00
2019-04-25T00:21:14.090Z,27.93
2019-04-25T00:22:36.546Z,28.62
2019-04-25T00:23:43.708Z,27.07
2019-04-25T00:25:15.028Z,32.88
2019-04-25T00:26:14.125Z,29.37
2019-04-25T00:27:18.587Z,27.05
2019-04-25T00:28:23.182Z,28.85
2019-04-25T00:29:27.648Z,26.25
2019-04-25T00:30:33.004Z,35.45
2019-04-25T00:31:37.467Z,29.05
2019-04-25T00:32:42.914Z,29.77
2019-04-25T00:33:48.241Z,27.00
2019-04-25T00:34:52.841Z,29.85
2019-04-25T00:35:57.370Z,30.45
2019-04-25T00:37:02.512Z,28.30
2019-04-25T00:38:07.476Z,33.92
2019-04-25T00:39:11.958Z,29.45
2019-04-25T00:40:16.692Z,30.17
2019-04-25T00:41:21.446Z,31.27
2019-04-25T00:42:25.913Z,30.05
2019-04-25T00:43:31.444Z,29.37
2019-04-25T00:44:36.088Z,28.75
2019-04-25T00:45:42.421Z,30.48
2019-04-25T00:46:49.082Z,31.17
2019-04-25T00:47:53.044Z,28.62
2019-04-25T00:48:57.511Z,27.22
2019-04-25T00:50:02.419Z,31.55
2019-04-25T00:51:06.970Z,28.25
2019-04-25T00:52:11.703Z,25.77
2019-04-25T00:53:16.203Z,30.02
2019-04-25T00:54:22.552Z,26.35
2019-04-25T00:55:29.005Z,28.17
2019-04-25T00:56:33.004Z,31.90
2019-04-25T00:57:38.434Z,29.37
2019-04-25T00:58:59.608Z,32.50
2019-04-25T01:00:21.641Z,29.57
2019-04-25T01:01:41.365Z,28.02
2019-04-25T01:02:48.338Z,32.98
2019-04-25T01:03:54.505Z,31.00
2019-04-25T01:04:58.916Z,34.00
2019-04-25T01:06:03.901Z,31.27
2019-04-25T01:07:08.702Z,31.50
2019-04-25T01:08:13.169Z,39.05
2019-04-25T01:09:18.304Z,30.77
2019-04-25T01:10:23.126Z,29.65
2019-04-25T01:11:27.828Z,27.90
2019-04-25T01:12:32.287Z,29.72
2019-04-25T01:13:36.765Z,26.25
2019-04-25T01:14:42.038Z,32.00
2019-04-25T01:15:47.059Z,31.95
2019-04-25T01:16:52.978Z,29.23
2019-04-25T01:17:58.030Z,34.20
2019-04-25T01:19:03.534Z,29.50
2019-04-25T01:20:08.431Z,29.50
2019-04-25T01:21:14.132Z,31.40
2019-04-25T01:22:19.046Z,30.37
2019-04-25T01:23:23.756Z,33.58
2019-04-25T01:24:28.327Z,30.12
2019-04-25T01:25:40.989Z,28.75
2019-04-25T01:26:39.532Z,30.52
2019-04-25T01:27:43.987Z,31.95
2019-04-25T01:28:48.455Z,31.93
2019-04-25T01:29:54.454Z,32.38
2019-04-25T01:31:00.556Z,30.65
2019-04-25T01:32:06.483Z,31.15
2019-04-25T01:33:11.346Z,28.47
2019-04-25T01:34:17.451Z,30.90
2019-04-25T01:35:26.250Z,32.93
2019-04-25T01:36:35.422Z,29.98
2019-04-25T01:37:57.825Z,28.95
2019-04-25T01:39:20.068Z,33.08
2019-04-25T01:40:43.912Z,30.60
2019-04-25T01:41:50.103Z,32.23
2019-04-25T01:43:09.451Z,31.68
2019-04-25T01:44:28.115Z,31.55
2019-04-25T01:45:34.517Z,32.90
2019-04-25T01:46:40.554Z,35.55
2019-04-25T01:47:45.545Z,33.75
2019-04-25T01:48:50.257Z,30.60
2019-04-25T01:49:56.592Z,33.00
2019-04-25T01:51:04.014Z,34.05
2019-04-25T01:52:08.643Z,34.83
2019-04-25T01:53:14.619Z,36.83
2019-04-25T01:54:19.304Z,33.00
2019-04-25T01:55:23.764Z,29.12
2019-04-25T01:56:28.229Z,33.15
2019-04-25T01:57:33.752Z,35.28
2019-04-25T01:58:38.247Z,28.60
2019-04-25T01:59:43.845Z,32.17
2019-04-25T02:00:51.347Z,33.08
2019-04-25T02:01:56.792Z,26.93
2019-04-25T02:03:03.692Z,29.63
2019-04-25T02:04:08.477Z,31.45
2019-04-25T02:05:13.984Z,34.78
2019-04-25T02:06:18.521Z,32.00
2019-04-25T02:07:23.356Z,33.02
2019-04-25T02:08:28.013Z,31.87
2019-04-25T02:09:33.695Z,33.10
2019-04-25T02:10:38.732Z,36.48
2019-04-25T02:11:44.908Z,32.88
2019-04-25T02:12:52.190Z,32.30
2019-04-25T02:13:58.892Z,31.30
2019-04-25T02:15:05.873Z,31.23
2019-04-25T02:16:09.713Z,30.55
2019-04-25T02:17:14.273Z,34.05
2019-04-25T02:18:18.734Z,31.97
2019-04-25T02:19:24.150Z,35.98
2019-04-25T02:20:28.746Z,30.08
2019-04-25T02:21:33.595Z,32.30
2019-04-25T02:22:38.410Z,31.65
2019-04-25T02:23:44.174Z,31.70
2019-04-25T02:24:49.177Z,35.25
2019-04-25T02:26:06.781Z,32.00
2019-04-25T02:27:00.799Z,32.23
2019-04-25T02:28:05.799Z,31.20
2019-04-25T02:29:10.603Z,32.03
2019-04-25T02:30:16.194Z,33.53
2019-04-25T02:31:20.654Z,33.18
2019-04-25T02:32:25.471Z,33.75
2019-04-25T02:33:29.981Z,35.15
2019-04-25T02:34:34.864Z,31.73
2019-04-25T02:35:42.899Z,34.90
2019-04-25T02:36:46.961Z,30.25
2019-04-25T02:37:51.704Z,34.95
2019-04-25T02:38:58.513Z,33.00
2019-04-25T02:40:05.825Z,37.00
2019-04-25T02:41:09.137Z,32.80
2019-04-25T02:42:16.753Z,37.20
2019-04-25T02:43:20.260Z,35.38
2019-04-25T02:44:24.991Z,36.90
2019-04-25T02:45:37.564Z,38.02
2019-04-25T02:47:03.329Z,33.42
2019-04-25T02:48:09.326Z,37.73
2019-04-25T02:49:34.877Z,37.95
2019-04-25T02:50:34.221Z,33.70
2019-04-25T02:51:55.033Z,35.55
2019-04-25T02:53:07.293Z,35.70
2019-04-25T02:54:14.029Z,38.13
2019-04-25T02:55:30.773Z,35.25
2019-04-25T02:56:33.078Z,33.63
2019-04-25T02:57:30.895Z,35.65
2019-04-25T02:58:35.793Z,39.30
2019-04-25T02:59:40.613Z,34.70
2019-04-25T03:00:52.621Z,43.48
2019-04-25T03:01:51.385Z,34.80
2019-04-25T03:02:57.284Z,41.50
2019-04-25T03:04:04.880Z,34.73
2019-04-25T03:05:10.039Z,37.63
2019-04-25T03:06:15.263Z,36.05
2019-04-25T03:07:19.924Z,45.67
2019-04-25T03:08:24.606Z,37.85
2019-04-25T03:09:29.619Z,36.88
2019-04-25T03:10:34.885Z,35.15
2019-04-25T03:11:39.811Z,39.18
2019-04-25T03:12:44.713Z,34.98
2019-04-25T03:13:49.336Z,37.75
2019-04-25T03:14:55.040Z,39.63
2019-04-25T03:16:00.719Z,38.30
2019-04-25T03:17:09.731Z,35.70
2019-04-25T03:18:15.349Z,40.90
2019-04-25T03:19:26.263Z,38.58
2019-04-25T03:20:48.739Z,38.20
2019-04-25T03:22:01.562Z,37.67
2019-04-25T03:23:09.498Z,37.90
2019-04-25T03:24:16.815Z,37.75
2019-04-25T03:25:20.488Z,36.33
2019-04-25T03:26:24.958Z,36.70
2019-04-25T03:27:30.051Z,36.30
2019-04-25T03:28:36.096Z,39.05
2019-04-25T03:29:40.582Z,42.08
2019-04-25T03:30:45.167Z,41.53
2019-04-25T03:31:49.702Z,39.25
2019-04-25T03:32:56.154Z,41.42
2019-04-25T03:34:02.561Z,35.88
2019-04-25T03:35:07.441Z,38.25
2019-04-25T03:36:11.915Z,39.03
2019-04-25T03:37:16.390Z,36.63
2019-04-25T03:38:20.845Z,39.50
2019-04-25T03:39:27.065Z,37.35
2019-04-25T03:40:31.980Z,41.95
2019-04-25T03:41:36.452Z,40.15
2019-04-25T03:42:41.281Z,40.03
2019-04-25T03:43:45.747Z,40.23
2019-04-25T03:44:50.543Z,39.83
2019-04-25T03:45:55.303Z,37.15
2019-04-25T03:47:00.080Z,34.85
2019-04-25T03:48:05.634Z,42.03
2019-04-25T03:49:10.878Z,37.20
2019-04-25T03:50:15.537Z,35.75
2019-04-25T03:51:20.078Z,38.85
2019-04-25T03:52:24.547Z,40.85
2019-04-25T03:53:29.093Z,37.65
2019-04-25T03:54:33.583Z,36.45
2019-04-25T03:55:38.434Z,35.65
2019-04-25T03:56:53.279Z,39.85
2019-04-25T03:57:49.452Z,34.85
2019-04-25T03:58:54.079Z,35.03
2019-04-25T03:59:58.549Z,37.28
2019-04-25T04:01:06.618Z,33.67
2019-04-25T04:02:09.188Z,32.88
2019-04-25T04:03:15.161Z,36.08
2019-04-25T04:04:20.088Z,32.50
2019-04-25T04:05:24.880Z,32.28
2019-04-25T04:06:29.347Z,34.38
2019-04-25T04:07:33.816Z,35.60
2019-04-25T04:08:38.280Z,33.18
2019-04-25T04:09:43.608Z,32.63
2019-04-25T04:10:48.204Z,30.10
2019-04-25T04:11:53.431Z,29.23
2019-04-25T04:12:58.415Z,29.65
2019-04-25T04:14:04.930Z,29.07
2019-04-25T04:15:09.143Z,30.32
2019-04-25T04:16:15.744Z,26.80
2019-04-25T04:17:36.712Z,28.35
2019-04-25T04:18:44.207Z,28.42
2019-04-25T04:19:56.322Z,27.55
2019-04-25T04:21:17.541Z,27.02
2019-04-25T04:22:24.124Z,26.95
2019-04-25T04:23:30.237Z,30.27
2019-04-25T04:24:36.640Z,30.08
2019-04-25T04:25:41.493Z,35.90
2019-04-25T04:26:47.601Z,33.18
2019-04-25T04:27:53.718Z,30.20
2019-04-25T04:28:58.634Z,27.48
2019-04-25T04:30:04.188Z,32.10
2019-04-25T04:31:09.093Z,27.48
2019-04-25T04:32:14.775Z,28.87
2019-04-25T04:33:29.569Z,25.68
2019-04-25T04:34:26.237Z,28.65
2019-04-25T04:35:30.708Z,27.48
2019-04-25T04:36:35.174Z,29.45
2019-04-25T04:37:39.648Z,25.62
2019-04-25T04:38:44.496Z,26.97
2019-04-25T04:39:49.222Z,25.57
2019-04-25T04:40:55.145Z,24.85
2019-04-25T04:41:59.765Z,25.80
2019-04-25T04:43:05.092Z,22.90
2019-04-25T04:44:09.987Z,29.85
2019-04-25T04:45:15.774Z,24.87
2019-04-25T04:46:20.681Z,23.75
2019-04-25T04:47:25.794Z,25.50
2019-04-25T04:48:30.425Z,21.97
2019-04-25T04:49:35.208Z,21.77
2019-04-25T04:50:40.149Z,19.77
2019-04-25T04:51:44.622Z,24.77
2019-04-25T04:52:50.263Z,19.05
2019-04-25T04:53:54.729Z,19.87
2019-04-25T04:55:06.489Z,20.12
2019-04-25T04:56:05.782Z,20.40
2019-04-25T04:57:25.704Z,17.65
2019-04-25T04:58:17.619Z,20.05
2019-04-25T04:59:24.699Z,18.62
2019-04-25T05:00:28.615Z,16.80
2019-04-25T05:01:34.725Z,17.92
2019-04-25T05:02:50.993Z,18.52
2019-04-25T05:03:57.099Z,15.95
2019-04-25T05:05:06.252Z,21.40
2019-04-25T05:06:16.257Z,15.23
2019-04-25T05:07:23.732Z,17.40
2019-04-25T05:08:31.063Z,20.17
2019-04-25T05:09:35.876Z,16.10
2019-04-25T05:10:40.672Z,19.10
2019-04-25T05:11:45.412Z,16.70
2019-04-25T05:12:49.880Z,16.60
2019-04-25T05:13:54.343Z,12.98
2019-04-25T05:14:58.818Z,17.05
2019-04-25T05:16:03.669Z,19.02
2019-04-25T05:17:08.489Z,14.47
2019-04-25T05:18:15.639Z,22.07
2019-04-25T05:19:19.780Z,15.65
2019-04-25T05:20:24.470Z,16.65
2019-04-25T05:21:28.958Z,18.10
2019-04-25T05:22:33.988Z,14.83
2019-04-25T05:23:38.457Z,17.50
2019-04-25T05:24:43.846Z,20.15
2019-04-25T05:25:48.939Z,29.12
2019-04-25T05:26:54.005Z,24.10
2019-04-25T05:28:02.879Z,20.90
2019-04-25T05:29:04.737Z,19.77
2019-04-25T05:30:11.494Z,17.25
2019-04-25T05:31:20.053Z,18.17
2019-04-25T05:32:25.240Z,18.52
2019-04-25T05:33:30.200Z,29.20
2019-04-25T05:34:35.742Z,20.48
2019-04-25T05:35:40.204Z,20.55
2019-04-25T05:36:44.684Z,13.78
2019-04-25T05:37:49.145Z,12.82
2019-04-25T05:38:53.931Z,14.05
2019-04-25T05:39:58.457Z,20.60
2019-04-25T05:41:04.571Z,10.28
2019-04-25T05:42:11.010Z,11.22
2019-04-25T05:43:16.449Z,12.55
2019-04-25T05:44:21.078Z,18.17
2019-04-25T05:45:27.251Z,15.13
2019-04-25T05:46:32.017Z,16.12
2019-04-25T05:47:37.404Z,18.70
2019-04-25T05:48:43.820Z,18.10
2019-04-25T05:49:48.644Z,13.70
2019-04-25T05:50:53.788Z,11.00
2019-04-25T05:51:58.679Z,28.25
2019-04-25T05:53:04.287Z,14.00
2019-04-25T05:54:08.832Z,9.43
2019-04-25T05:55:14.256Z,12.37
2019-04-25T05:56:20.152Z,13.50
2019-04-25T05:57:25.020Z,12.90
2019-04-25T05:58:30.259Z,10.32
2019-04-25T05:59:35.076Z,14.35
2019-04-25T06:00:44.015Z,16.12
2019-04-25T06:01:48.838Z,12.90
2019-04-25T06:02:53.441Z,13.32
2019-04-25T06:03:57.837Z,10.88
2019-04-25T06:05:03.584Z,10.13
2019-04-25T06:06:08.042Z,13.62
2019-04-25T06:07:14.490Z,10.32
2019-04-25T06:08:21.298Z,13.35
2019-04-25T06:09:28.112Z,11.18
2019-04-25T06:10:34.170Z,13.70
2019-04-25T06:11:48.811Z,12.35
2019-04-25T06:13:13.816Z,12.30
2019-04-25T06:14:20.643Z,15.10
2019-04-25T06:15:27.062Z,16.60
2019-04-25T06:16:33.338Z,10.32
2019-04-25T06:17:45.178Z,13.38
2019-04-25T06:19:13.669Z,15.98
2019-04-25T06:20:11.384Z,12.63
2019-04-25T06:21:15.846Z,14.10
2019-04-25T06:22:25.553Z,12.55
2019-04-25T06:23:47.644Z,13.28
2019-04-25T06:24:54.267Z,17.95
2019-04-25T06:25:58.773Z,13.43
2019-04-25T06:27:16.763Z,11.35
2019-04-25T06:28:23.957Z,11.50
2019-04-25T06:29:29.262Z,10.93
2019-04-25T06:30:35.215Z,11.00
2019-04-25T06:31:39.903Z,13.60
2019-04-25T06:32:44.390Z,14.47
2019-04-25T06:33:48.969Z,8.70
2019-04-25T06:34:54.258Z,18.73
2019-04-25T06:35:59.139Z,14.80
2019-04-25T06:37:04.823Z,9.95
2019-04-25T06:38:09.916Z,14.68
2019-04-25T06:39:15.346Z,10.05
2019-04-25T06:40:20.567Z,12.63
2019-04-25T06:41:26.183Z,11.55
2019-04-25T06:42:31.463Z,15.43
2019-04-25T06:43:37.849Z,9.98
2019-04-25T06:44:53.476Z,13.48
2019-04-25T06:46:15.669Z,12.65
2019-04-25T06:47:25.648Z,44.25
2019-04-25T06:48:37.899Z,8.77
2019-04-25T06:49:43.339Z,10.35
2019-04-25T06:50:47.794Z,16.27
2019-04-25T06:51:54.641Z,18.12
2019-04-25T06:52:59.416Z,12.05
2019-04-25T06:54:04.150Z,8.13
2019-04-25T06:55:08.751Z,9.85
2019-04-25T06:56:14.569Z,8.25
2019-04-25T06:57:19.046Z,5.80
2019-04-25T06:58:26.907Z,8.93
2019-04-25T06:59:30.153Z,4.70
2019-04-25T07:00:40.935Z,10.60
2019-04-25T07:01:40.838Z,5.95
2019-04-25T07:02:45.311Z,5.28
2019-04-25T07:03:50.054Z,12.88
2019-04-25T07:04:54.811Z,9.93
2019-04-25T07:05:59.267Z,8.75
2019-04-25T07:07:10.554Z,11.80
2019-04-25T07:08:10.559Z,5.83
2019-04-25T07:09:17.531Z,12.88
2019-04-25T07:10:24.180Z,15.30
2019-04-25T07:11:28.305Z,10.95
2019-04-25T07:12:34.457Z,9.30
2019-04-25T07:13:39.183Z,5.60
2019-04-25T07:14:43.983Z,8.05
2019-04-25T07:15:48.578Z,4.37
2019-04-25T07:16:53.326Z,9.23
2019-04-25T07:17:57.775Z,6.60
2019-04-25T07:19:02.388Z,4.10
2019-04-25T07:20:09.897Z,11.18
2019-04-25T07:21:15.727Z,12.47
2019-04-25T07:22:20.255Z,4.60
2019-04-25T07:23:25.448Z,5.65
2019-04-25T07:24:30.170Z,9.93
2019-04-25T07:25:36.742Z,7.95
2019-04-25T07:26:45.833Z,7.55
2019-04-25T07:27:58.005Z,7.78
2019-04-25T07:29:05.386Z,6.72
2019-04-25T07:30:46.839Z,8.25
2019-04-25T07:31:42.419Z,3.35
2019-04-25T07:32:57.406Z,5.92
2019-04-25T07:34:03.652Z,4.22
2019-04-25T07:35:08.547Z,5.08
2019-04-25T07:36:13.835Z,5.45
2019-04-25T07:37:19.205Z,4.25
2019-04-25T07:38:25.535Z,3.83
2019-04-25T07:39:30.363Z,7.65
2019-04-25T07:40:35.223Z,5.45
2019-04-25T07:41:40.590Z,6.05
2019-04-25T07:42:45.121Z,19.62
2019-04-25T07:43:49.668Z,7.37
2019-04-25T07:44:55.205Z,6.20
2019-04-25T07:45:59.797Z,5.85
2019-04-25T07:47:04.780Z,6.05
2019-04-25T07:48:09.630Z,6.25
2019-04-25T07:49:14.104Z,4.17
2019-04-25T07:50:18.900Z,8.20
2019-04-25T07:51:23.738Z,7.92
2019-04-25T07:52:29.689Z,4.00
2019-04-25T07:53:35.135Z,5.30
2019-04-25T07:54:40.498Z,5.00
2019-04-25T07:55:44.958Z,11.08
2019-04-25T07:56:49.426Z,9.75
2019-04-25T07:57:54.185Z,14.73
2019-04-25T07:58:58.661Z,5.47
2019-04-25T08:00:04.779Z,4.53
2019-04-25T08:01:11.887Z,6.37
2019-04-25T08:02:17.957Z,4.28
2019-04-25T08:03:23.736Z,8.75
2019-04-25T08:04:29.053Z,7.50
2019-04-25T08:05:35.168Z,8.23
2019-04-25T08:06:39.806Z,9.85
2019-04-25T08:07:44.560Z,4.05
2019-04-25T08:08:49.428Z,7.17
2019-04-25T08:09:54.273Z,10.43
2019-04-25T08:11:04.051Z,4.80
2019-04-25T08:12:08.632Z,8.98
2019-04-25T08:13:13.361Z,5.35
2019-04-25T08:14:35.132Z,5.03
2019-04-25T08:15:43.955Z,5.30
2019-04-25T08:16:53.785Z,3.95
2019-04-25T08:18:06.449Z,2.12
2019-04-25T08:19:13.623Z,4.40
2019-04-25T08:20:18.935Z,3.60
2019-04-25T08:21:23.954Z,5.08
2019-04-25T08:22:30.040Z,3.22
2019-04-25T08:23:37.554Z,4.08
2019-04-25T08:24:43.872Z,6.12
2019-04-25T08:25:48.428Z,2.27
2019-04-25T08:26:53.461Z,3.10
2019-04-25T08:27:58.086Z,3.60
2019-04-25T08:29:03.632Z,8.10
2019-04-25T08:30:08.872Z,10.15
2019-04-25T08:31:13.622Z,4.60
2019-04-25T08:32:19.199Z,2.60
2019-04-25T08:33:23.768Z,1.80
2019-04-25T08:34:30.188Z,1.95
2019-04-25T08:35:36.534Z,5.15
2019-04-25T08:36:41.541Z,3.87
2019-04-25T08:37:46.310Z,2.95
2019-04-25T08:38:51.056Z,3.37
2019-04-25T08:39:55.846Z,6.40
2019-04-25T08:41:01.557Z,4.58
2019-04-25T08:42:06.015Z,4.83
2019-04-25T08:43:10.766Z,2.87
2019-04-25T08:44:15.257Z,4.80
2019-04-25T08:45:20.830Z,7.67
2019-04-25T08:46:25.427Z,5.60
2019-04-25T08:47:30.436Z,6.47
2019-04-25T08:48:37.398Z,4.72
2019-04-25T08:49:45.759Z,8.88
2019-04-25T08:50:57.681Z,3.45
2019-04-25T08:52:02.136Z,3.50
2019-04-25T08:53:06.589Z,5.12
2019-04-25T08:54:18.431Z,4.30
2019-04-25T08:55:42.058Z,7.42
2019-04-25T08:56:46.579Z,3.05
2019-04-25T08:57:55.921Z,5.67
2019-04-25T08:59:06.231Z,8.90
2019-04-25T09:00:14.399Z,5.10
2019-04-25T09:01:26.378Z,6.08
2019-04-25T09:02:37.136Z,1.62
2019-04-25T09:03:48.616Z,3.45
2019-04-25T09:05:10.963Z,4.72
2019-04-25T09:06:15.767Z,2.47
2019-04-25T09:07:20.235Z,2.80
2019-04-25T09:08:24.764Z,2.60
2019-04-25T09:09:29.227Z,8.43
2019-04-25T09:10:36.423Z,2.85
2019-04-25T09:11:40.165Z,2.80
2019-04-25T09:12:45.355Z,6.87
2019-04-25T09:13:49.855Z,1.87
2019-04-25T09:14:54.825Z,1.27
2019-04-25T09:16:00.066Z,2.50
2019-04-25T09:17:04.927Z,2.98
2019-04-25T09:18:09.555Z,2.37
2019-04-25T09:19:14.309Z,0.90
2019-04-25T09:20:20.134Z,1.98
2019-04-25T09:21:25.234Z,2.00
2019-04-25T09:22:29.941Z,4.80
2019-04-25T09:23:36.468Z,8.28
2019-04-25T09:24:42.099Z,1.25
2019-04-25T09:25:46.946Z,3.70
2019-04-25T09:26:53.918Z,1.55
2019-04-25T09:27:58.681Z,5.05
2019-04-25T09:29:15.989Z,5.40
2019-04-25T09:30:10.263Z,3.37
2019-04-25T09:31:14.984Z,1.57
2019-04-25T09:32:19.602Z,2.02
2019-04-25T09:33:24.109Z,2.98
2019-04-25T09:34:28.732Z,1.65
2019-04-25T09:35:33.666Z,4.35
2019-04-25T09:36:38.250Z,7.67
2019-04-25T09:37:44.783Z,21.23
2019-04-25T09:38:53.843Z,5.08
2019-04-25T09:40:05.686Z,7.20
2019-04-25T09:41:10.977Z,4.67
2019-04-25T09:42:15.989Z,10.32
2019-04-25T09:43:21.101Z,1.12
2019-04-25T09:44:33.178Z,0.55
2019-04-25T09:45:43.903Z,3.08
2019-04-25T09:46:49.305Z,2.95
2019-04-25T09:47:55.762Z,3.35
2019-04-25T09:49:07.611Z,3.77
2019-04-25T09:50:13.970Z,1.12
2019-04-25T09:51:23.608Z,1.57
2019-04-25T09:52:28.115Z,3.45
2019-04-25T09:53:34.833Z,2.30
2019-04-25T09:54:53.527Z,3.90
2019-04-25T09:56:04.116Z,9.53
2019-04-25T09:57:11.361Z,1.42
2019-04-25T09:58:23.862Z,2.02
2019-04-25T09:59:30.125Z,2.77
2019-04-25T10:00:40.409Z,5.87
2019-04-25T10:01:48.708Z,2.90
2019-04-25T10:02:55.354Z,3.35
2019-04-25T10:03:59.837Z,5.05
2019-04-25T10:05:08.285Z,3.60
2019-04-25T10:06:14.841Z,2.40
2019-04-25T10:07:19.287Z,3.05
2019-04-25T10:08:24.251Z,2.65
2019-04-25T10:09:29.037Z,4.53
2019-04-25T10:10:33.921Z,5.28
2019-04-25T10:11:38.423Z,1.80
2019-04-25T10:12:44.225Z,5.08
2019-04-25T10:13:53.272Z,1.15
2019-04-25T10:15:20.406Z,1.47
2019-04-25T10:16:25.250Z,5.75
2019-04-25T10:17:30.005Z,1.00
2019-04-25T10:18:35.627Z,1.77
2019-04-25T10:19:40.980Z,2.75
2019-04-25T10:20:46.316Z,3.77
2019-04-25T10:21:51.822Z,3.05
2019-04-25T10:22:57.021Z,3.95
2019-04-25T10:24:03.530Z,1.85
2019-04-25T10:25:08.149Z,1.57
2019-04-25T10:26:13.539Z,3.90
2019-04-25T10:27:17.985Z,2.95
2019-04-25T10:28:23.371Z,2.77
2019-04-25T10:29:39.346Z,2.72
2019-04-25T10:30:34.822Z,2.47
2019-04-25T10:31:39.874Z,1.67
2019-04-25T10:32:46.227Z,1.45
2019-04-25T10:33:50.820Z,1.37
2019-04-25T10:34:55.571Z,1.17
2019-04-25T10:36:01.205Z,1.47
2019-04-25T10:37:06.439Z,3.47
2019-04-25T10:38:10.894Z,2.67
2019-04-25T10:39:15.450Z,2.87
2019-04-25T10:40:20.911Z,4.12
2019-04-25T10:41:25.531Z,1.72
2019-04-25T10:42:30.146Z,2.70
2019-04-25T10:43:35.342Z,4.75
2019-04-25T10:44:40.174Z,1.82
2019-04-25T10:45:48.703Z,2.02
2019-04-25T10:46:54.605Z,2.17
2019-04-25T10:48:00.241Z,2.95
2019-04-25T10:49:04.964Z,1.20
2019-04-25T10:50:09.792Z,3.52
2019-04-25T10:51:14.320Z,3.05
2019-04-25T10:52:19.490Z,3.30
2019-04-25T10:53:25.169Z,2.87
2019-04-25T10:54:30.181Z,4.78
2019-04-25T10:55:34.881Z,2.95
2019-04-25T10:56:40.141Z,2.47
2019-04-25T10:57:45.527Z,2.65
2019-04-25T10:58:50.911Z,2.83
2019-04-25T11:00:06.146Z,3.33
2019-04-25T11:01:01.975Z,3.30
2019-04-25T11:02:08.174Z,1.98
2019-04-25T11:03:30.251Z,5.00
2019-04-25T11:04:36.354Z,2.55
2019-04-25T11:05:41.495Z,4.00
2019-04-25T11:06:45.959Z,5.20
2019-04-25T11:07:50.448Z,1.98
2019-04-25T11:08:57.574Z,5.03
2019-04-25T11:10:03.603Z,1.72
2019-04-25T11:11:10.814Z,2.83
2019-04-25T11:12:16.288Z,3.80
2019-04-25T11:13:24.891Z,7.97
2019-04-25T11:14:30.976Z,7.90
2019-04-25T11:15:36.145Z,3.62
2019-04-25T11:16:40.697Z,4.20
2019-04-25T11:17:46.770Z,2.17
2019-04-25T11:18:52.594Z,2.72
2019-04-25T11:19:57.822Z,5.30
2019-04-25T11:21:05.595Z,3.02
2019-04-25T11:22:08.846Z,5.28
2019-04-25T11:23:13.963Z,5.10
2019-04-25T11:24:18.520Z,7.10
2019-04-25T11:25:24.503Z,1.98
2019-04-25T11:26:29.026Z,7.60
2019-04-25T11:27:34.032Z,3.33
2019-04-25T11:28:40.639Z,2.02
2019-04-25T11:29:46.035Z,6.08
2019-04-25T11:30:52.746Z,5.67
2019-04-25T11:31:58.344Z,4.33
2019-04-25T11:33:03.586Z,3.72
2019-04-25T11:34:09.443Z,2.70
2019-04-25T11:35:14.968Z,5.33
2019-04-25T11:36:20.039Z,3.65
2019-04-25T11:37:26.765Z,3.58
2019-04-25T11:38:38.877Z,5.60
2019-04-25T11:39:45.997Z,4.10
2019-04-25T11:40:55.162Z,4.00
2019-04-25T11:42:00.024Z,1.22
2019-04-25T11:43:04.693Z,5.60
2019-04-25T11:44:09.147Z,2.67
2019-04-25T11:45:14.409Z,3.42
2019-04-25T11:46:19.028Z,1.72
2019-04-25T11:47:25.580Z,3.27
2019-04-25T11:48:30.314Z,1.22
2019-04-25T11:49:35.288Z,1.62
2019-04-25T11:50:40.932Z,2.47
2019-04-25T11:51:46.106Z,2.65
2019-04-25T11:52:51.011Z,2.47
2019-04-25T11:53:55.609Z,8.68
2019-04-25T11:55:00.416Z,1.67
2019-04-25T11:56:05.035Z,1.92
2019-04-25T11:57:09.485Z,1.82
2019-04-25T11:58:14.332Z,5.25
2019-04-25T11:59:18.945Z,8.58
2019-04-25T12:00:30.623Z,7.55
2019-04-25T12:01:35.401Z,2.25
2019-04-25T12:02:39.929Z,3.80
2019-04-25T12:03:46.608Z,2.92
2019-04-25T12:04:51.056Z,1.52
2019-04-25T12:05:56.872Z,2.80
2019-04-25T12:07:03.843Z,1.65
2019-04-25T12:08:08.683Z,2.55
2019-04-25T12:09:13.871Z,5.33
2019-04-25T12:10:19.579Z,4.30
2019-04-25T12:11:25.249Z,1.57
2019-04-25T12:12:29.822Z,1.92
2019-04-25T12:13:34.563Z,2.23
2019-04-25T12:14:39.362Z,3.50
2019-04-25T12:15:46.043Z,2.08
2019-04-25T12:16:51.899Z,3.80
2019-04-25T12:17:57.621Z,2.47
2019-04-25T12:19:02.126Z,3.20
2019-04-25T12:20:06.946Z,1.65
2019-04-25T12:21:11.506Z,1.57
2019-04-25T12:22:15.945Z,2.20
2019-04-25T12:23:20.726Z,2.90
2019-04-25T12:24:25.473Z,2.90
2019-04-25T12:25:29.939Z,2.85
2019-04-25T12:26:34.411Z,4.03
2019-04-25T12:27:39.151Z,2.77
2019-04-25T12:28:44.991Z,2.12
2019-04-25T12:29:50.343Z,5.60
2019-04-25T12:30:55.419Z,1.40
2019-04-25T12:32:01.212Z,2.40
2019-04-25T12:33:18.012Z,2.12
2019-04-25T12:34:11.839Z,2.75
2019-04-25T12:35:16.292Z,1.65
2019-04-25T12:36:20.751Z,2.08
2019-04-25T12:37:25.287Z,5.10
2019-04-25T12:38:29.763Z,3.77
2019-04-25T12:39:35.194Z,7.85
2019-04-25T12:40:39.942Z,4.50
2019-04-25T12:41:46.753Z,4.20
2019-04-25T12:42:52.191Z,3.47
2019-04-25T12:44:04.071Z,5.55
2019-04-25T12:45:11.509Z,6.17
2019-04-25T12:46:20.402Z,2.33
2019-04-25T12:47:29.208Z,3.98
2019-04-25T12:48:34.142Z,2.15
2019-04-25T12:49:38.571Z,3.83
2019-04-25T12:50:43.965Z,4.00
2019-04-25T12:51:48.531Z,1.85
2019-04-25T12:52:54.675Z,2.95
2019-04-25T12:53:59.243Z,1.72
2019-04-25T12:55:05.345Z,7.78
2019-04-25T12:56:09.803Z,4.90
2019-04-25T12:57:14.630Z,2.92
2019-04-25T12:58:19.091Z,2.95
2019-04-25T12:59:23.869Z,1.92
2019-04-25T13:00:30.221Z,5.45
2019-04-25T13:01:35.046Z,4.55
2019-04-25T13:02:39.505Z,3.35
2019-04-25T13:03:44.009Z,1.72
2019-04-25T13:04:48.440Z,4.80
2019-04-25T13:05:54.079Z,3.17
2019-04-25T13:06:59.874Z,3.42
2019-04-25T13:08:04.891Z,4.17
2019-04-25T13:09:11.755Z,3.30
2019-04-25T13:10:17.473Z,2.15
2019-04-25T13:11:23.823Z,4.15
2019-04-25T13:12:28.451Z,5.15
2019-04-25T13:13:34.012Z,2.50
2019-04-25T13:14:39.122Z,2.47
2019-04-25T13:15:45.989Z,5.97
2019-04-25T13:16:50.426Z,7.35
2019-04-25T13:17:55.163Z,6.10
2019-04-25T13:19:10.082Z,2.75
2019-04-25T13:20:09.059Z,3.87
2019-04-25T13:21:14.541Z,1.98
2019-04-25T13:22:19.412Z,1.77
2019-04-25T13:23:24.285Z,4.62
2019-04-25T13:24:28.707Z,4.47
2019-04-25T13:25:34.303Z,3.40
2019-04-25T13:26:43.554Z,2.85
2019-04-25T13:27:52.280Z,2.20
2019-04-25T13:29:14.657Z,1.67
2019-04-25T13:30:21.070Z,2.30
2019-04-25T13:31:33.435Z,3.22
2019-04-25T13:32:56.577Z,1.57
2019-04-25T13:34:04.670Z,3.90
2019-04-25T13:35:23.501Z,3.10
2019-04-25T13:36:28.319Z,2.08
2019-04-25T13:37:34.179Z,1.02
2019-04-25T13:38:38.639Z,2.00
2019-04-25T13:39:44.204Z,1.22
2019-04-25T13:40:49.019Z,3.10
2019-04-25T13:41:54.402Z,3.30
2019-04-25T13:43:00.128Z,2.90
2019-04-25T13:44:05.234Z,3.65
2019-04-25T13:45:10.258Z,2.02
2019-04-25T13:47:19.498Z,1.72
2019-04-25T13:48:26.330Z,2.67
2019-04-25T13:49:31.588Z,2.70
2019-04-25T13:50:36.543Z,1.45
2019-04-25T13:51:41.009Z,6.17
2019-04-25T13:52:45.856Z,2.83
2019-04-25T13:53:50.592Z,3.83
2019-04-25T13:54:55.372Z,3.87
2019-04-25T13:56:00.125Z,0.78
2019-04-25T13:57:07.261Z,2.67
2019-04-25T13:58:14.244Z,3.22
2019-04-25T13:59:18.916Z,1.77
2019-04-25T14:00:25.107Z,4.92
2019-04-25T14:01:31.774Z,1.98
2019-04-25T14:02:36.241Z,2.42
2019-04-25T14:03:40.834Z,2.85
2019-04-25T14:04:45.314Z,1.50
2019-04-25T14:05:50.072Z,3.80
2019-04-25T14:06:54.893Z,1.45
2019-04-25T14:07:59.571Z,3.70
2019-04-25T14:09:07.266Z,1.75
2019-04-25T14:10:14.205Z,2.37
2019-04-25T14:11:18.826Z,1.05
2019-04-25T14:12:26.360Z,1.87
2019-04-25T14:13:30.071Z,2.42
2019-04-25T14:14:36.094Z,2.58
2019-04-25T14:15:43.128Z,3.05
2019-04-25T14:16:55.443Z,3.15
2019-04-25T14:18:08.132Z,3.27
2019-04-25T14:19:17.139Z,1.95
2019-04-25T14:20:26.516Z,2.27
2019-04-25T14:21:31.659Z,2.40
2019-04-25T14:22:38.755Z,2.52
2019-04-25T14:23:44.241Z,2.40
2019-04-25T14:24:49.137Z,2.45
2019-04-25T14:25:53.612Z,4.37
2019-04-25T14:26:58.491Z,3.17
2019-04-25T14:28:05.327Z,1.02
2019-04-25T14:29:09.553Z,3.05
2019-04-25T14:30:16.108Z,2.55
2019-04-25T14:31:33.764Z,1.20